sensor_id;sensor_type;location;lat;lon;timestamp;P1;durP1;ratioP1;P2;durP2;ratioP2
3343;SDS011;1685;53.104;8.228;2023-04-06T00:01:41;21.70;;;11.63;;
3343;SDS011;1685;53.104;8.228;2023-04-06T00:04:07;15.33;;;10.10;;
3343;SDS011;1685;53.104;8.228;2023-04-06T00:06:35;15.47;;;10.80;;
3343;SDS011;1685;53.104;8.228;2023-04-06T00:09:03;14.03;;;10.70;;
3343;SDS011;1685;53.104;8.228;2023-04-06T00:11:30;12.70;;;10.43;;
3343;SDS011;1685;53.104;8.228;2023-04-06T00:13:57;14.50;;;9.73;;
3343;SDS011;1685;53.104;8.228;2023-04-06T00:16:24;14.10;;;10.13;;
3343;SDS011;1685;53.104;8.228;2023-04-06T00:18:50;14.60;;;10.70;;
3343;SDS011;1685;53.104;8.228;2023-04-06T00:21:17;15.57;;;11.83;;
3343;SDS011;1685;53.104;8.228;2023-04-06T00:23:44;13.20;;;10.60;;
3343;SDS011;1685;53.104;8.228;2023-04-06T00:26:12;14.30;;;10.33;;
3343;SDS011;1685;53.104;8.228;2023-04-06T00:28:39;14.23;;;11.17;;
3343;SDS011;1685;53.104;8.228;2023-04-06T00:31:06;16.43;;;11.33;;
3343;SDS011;1685;53.104;8.228;2023-04-06T00:33:33;15.97;;;12.70;;
3343;SDS011;1685;53.104;8.228;2023-04-06T00:36:00;18.07;;;13.77;;
3343;SDS011;1685;53.104;8.228;2023-04-06T00:38:27;17.47;;;12.67;;
3343;SDS011;1685;53.104;8.228;2023-04-06T00:40:53;16.53;;;12.57;;
3343;SDS011;1685;53.104;8.228;2023-04-06T00:43:21;16.13;;;11.83;;
3343;SDS011;1685;53.104;8.228;2023-04-06T00:45:49;17.97;;;12.83;;
3343;SDS011;1685;53.104;8.228;2023-04-06T00:48:16;14.20;;;11.67;;
3343;SDS011;1685;53.104;8.228;2023-04-06T00:50:43;19.03;;;13.87;;
3343;SDS011;1685;53.104;8.228;2023-04-06T00:53:10;15.67;;;11.83;;
3343;SDS011;1685;53.104;8.228;2023-04-06T00:55:38;15.80;;;12.03;;
3343;SDS011;1685;53.104;8.228;2023-04-06T00:58:05;15.97;;;11.80;;
3343;SDS011;1685;53.104;8.228;2023-04-06T01:00:33;14.90;;;11.90;;
3343;SDS011;1685;53.104;8.228;2023-04-06T01:03:00;15.07;;;12.00;;
3343;SDS011;1685;53.104;8.228;2023-04-06T01:05:27;13.87;;;11.43;;
3343;SDS011;1685;53.104;8.228;2023-04-06T01:07:54;14.50;;;10.90;;
3343;SDS011;1685;53.104;8.228;2023-04-06T01:10:24;22.50;;;11.53;;
3343;SDS011;1685;53.104;8.228;2023-04-06T01:12:51;14.63;;;10.90;;
3343;SDS011;1685;53.104;8.228;2023-04-06T01:15:18;15.80;;;11.53;;
3343;SDS011;1685;53.104;8.228;2023-04-06T01:17:47;16.63;;;10.23;;
3343;SDS011;1685;53.104;8.228;2023-04-06T01:20:13;13.83;;;10.30;;
3343;SDS011;1685;53.104;8.228;2023-04-06T01:22:42;17.40;;;10.50;;
3343;SDS011;1685;53.104;8.228;2023-04-06T01:25:09;12.77;;;10.33;;
3343;SDS011;1685;53.104;8.228;2023-04-06T01:27:36;14.87;;;11.57;;
3343;SDS011;1685;53.104;8.228;2023-04-06T01:30:03;15.40;;;10.77;;
3343;SDS011;1685;53.104;8.228;2023-04-06T01:32:31;17.90;;;11.37;;
3343;SDS011;1685;53.104;8.228;2023-04-06T01:34:58;17.83;;;11.53;;
3343;SDS011;1685;53.104;8.228;2023-04-06T01:37:25;18.37;;;13.57;;
3343;SDS011;1685;53.104;8.228;2023-04-06T01:39:53;30.67;;;12.80;;
3343;SDS011;1685;53.104;8.228;2023-04-06T01:42:20;20.40;;;12.10;;
3343;SDS011;1685;53.104;8.228;2023-04-06T01:44:47;17.67;;;12.17;;
3343;SDS011;1685;53.104;8.228;2023-04-06T01:47:14;17.77;;;13.40;;
3343;SDS011;1685;53.104;8.228;2023-04-06T01:49:40;16.93;;;11.50;;
3343;SDS011;1685;53.104;8.228;2023-04-06T01:52:07;19.27;;;11.87;;
3343;SDS011;1685;53.104;8.228;2023-04-06T01:54:34;21.83;;;12.30;;
3343;SDS011;1685;53.104;8.228;2023-04-06T01:57:02;19.40;;;12.80;;
3343;SDS011;1685;53.104;8.228;2023-04-06T01:59:29;17.50;;;12.13;;
3343;SDS011;1685;53.104;8.228;2023-04-06T02:01:56;14.13;;;11.53;;
3343;SDS011;1685;53.104;8.228;2023-04-06T02:04:23;18.93;;;13.03;;
3343;SDS011;1685;53.104;8.228;2023-04-06T02:06:50;18.33;;;13.27;;
3343;SDS011;1685;53.104;8.228;2023-04-06T02:09:16;14.60;;;12.27;;
3343;SDS011;1685;53.104;8.228;2023-04-06T02:11:43;22.10;;;14.23;;
3343;SDS011;1685;53.104;8.228;2023-04-06T02:14:11;14.97;;;12.40;;
3343;SDS011;1685;53.104;8.228;2023-04-06T02:16:38;18.63;;;12.53;;
3343;SDS011;1685;53.104;8.228;2023-04-06T02:19:05;18.47;;;12.97;;
3343;SDS011;1685;53.104;8.228;2023-04-06T02:21:32;19.70;;;13.23;;
3343;SDS011;1685;53.104;8.228;2023-04-06T02:23:59;16.77;;;12.50;;
3343;SDS011;1685;53.104;8.228;2023-04-06T02:26:26;18.47;;;12.90;;
3343;SDS011;1685;53.104;8.228;2023-04-06T02:28:53;18.20;;;12.63;;
3343;SDS011;1685;53.104;8.228;2023-04-06T02:31:21;16.40;;;12.00;;
3343;SDS011;1685;53.104;8.228;2023-04-06T02:33:48;14.03;;;11.00;;
3343;SDS011;1685;53.104;8.228;2023-04-06T02:36:15;16.43;;;12.67;;
3343;SDS011;1685;53.104;8.228;2023-04-06T02:38:42;17.13;;;12.83;;
3343;SDS011;1685;53.104;8.228;2023-04-06T02:41:09;16.63;;;12.20;;
3343;SDS011;1685;53.104;8.228;2023-04-06T02:43:35;17.00;;;12.60;;
3343;SDS011;1685;53.104;8.228;2023-04-06T02:46:02;14.37;;;12.17;;
3343;SDS011;1685;53.104;8.228;2023-04-06T02:48:30;15.63;;;12.43;;
3343;SDS011;1685;53.104;8.228;2023-04-06T02:51:01;17.10;;;12.10;;
3343;SDS011;1685;53.104;8.228;2023-04-06T02:53:27;17.03;;;11.47;;
3343;SDS011;1685;53.104;8.228;2023-04-06T02:55:54;14.70;;;10.97;;
3343;SDS011;1685;53.104;8.228;2023-04-06T02:58:21;15.77;;;11.37;;
3343;SDS011;1685;53.104;8.228;2023-04-06T03:00:48;17.40;;;12.50;;
3343;SDS011;1685;53.104;8.228;2023-04-06T03:03:15;17.87;;;12.67;;
3343;SDS011;1685;53.104;8.228;2023-04-06T03:05:43;18.20;;;12.97;;
3343;SDS011;1685;53.104;8.228;2023-04-06T03:08:10;17.90;;;12.10;;
3343;SDS011;1685;53.104;8.228;2023-04-06T03:10:37;22.77;;;12.23;;
3343;SDS011;1685;53.104;8.228;2023-04-06T03:13:04;16.40;;;11.93;;
3343;SDS011;1685;53.104;8.228;2023-04-06T03:15:30;16.83;;;12.50;;
3343;SDS011;1685;53.104;8.228;2023-04-06T03:17:57;19.63;;;12.70;;
3343;SDS011;1685;53.104;8.228;2023-04-06T03:20:24;15.97;;;12.07;;
3343;SDS011;1685;53.104;8.228;2023-04-06T03:22:52;18.40;;;12.83;;
3343;SDS011;1685;53.104;8.228;2023-04-06T03:25:19;13.17;;;10.17;;
3343;SDS011;1685;53.104;8.228;2023-04-06T03:27:45;17.57;;;12.60;;
3343;SDS011;1685;53.104;8.228;2023-04-06T03:30:12;21.93;;;12.53;;
3343;SDS011;1685;53.104;8.228;2023-04-06T03:32:41;16.83;;;12.10;;
3343;SDS011;1685;53.104;8.228;2023-04-06T03:35:08;17.57;;;12.60;;
3343;SDS011;1685;53.104;8.228;2023-04-06T03:37:35;14.43;;;11.37;;
3343;SDS011;1685;53.104;8.228;2023-04-06T03:40:04;19.73;;;13.00;;
3343;SDS011;1685;53.104;8.228;2023-04-06T03:42:31;18.90;;;12.70;;
3343;SDS011;1685;53.104;8.228;2023-04-06T03:44:58;16.07;;;12.13;;
3343;SDS011;1685;53.104;8.228;2023-04-06T03:47:25;13.80;;;11.07;;
3343;SDS011;1685;53.104;8.228;2023-04-06T03:49:51;17.10;;;11.60;;
3343;SDS011;1685;53.104;8.228;2023-04-06T03:52:18;18.23;;;12.30;;
3343;SDS011;1685;53.104;8.228;2023-04-06T03:54:47;17.63;;;11.67;;
3343;SDS011;1685;53.104;8.228;2023-04-06T03:57:16;20.40;;;12.30;;
3343;SDS011;1685;53.104;8.228;2023-04-06T03:59:42;14.67;;;11.97;;
3343;SDS011;1685;53.104;8.228;2023-04-06T04:02:09;17.23;;;12.07;;
3343;SDS011;1685;53.104;8.228;2023-04-06T04:04:36;18.83;;;12.37;;
3343;SDS011;1685;53.104;8.228;2023-04-06T04:07:03;17.80;;;13.50;;
3343;SDS011;1685;53.104;8.228;2023-04-06T04:09:30;16.13;;;12.83;;
3343;SDS011;1685;53.104;8.228;2023-04-06T04:11:57;18.10;;;12.90;;
3343;SDS011;1685;53.104;8.228;2023-04-06T04:14:25;17.80;;;13.87;;
3343;SDS011;1685;53.104;8.228;2023-04-06T04:16:52;16.03;;;12.43;;
3343;SDS011;1685;53.104;8.228;2023-04-06T04:19:18;20.10;;;12.60;;
3343;SDS011;1685;53.104;8.228;2023-04-06T04:21:46;19.07;;;12.67;;
3343;SDS011;1685;53.104;8.228;2023-04-06T04:24:13;15.07;;;12.03;;
3343;SDS011;1685;53.104;8.228;2023-04-06T04:26:40;18.00;;;12.17;;
3343;SDS011;1685;53.104;8.228;2023-04-06T04:29:06;16.87;;;12.70;;
3343;SDS011;1685;53.104;8.228;2023-04-06T04:31:35;17.20;;;12.77;;
3343;SDS011;1685;53.104;8.228;2023-04-06T04:34:01;18.27;;;13.60;;
3343;SDS011;1685;53.104;8.228;2023-04-06T04:36:29;29.30;;;15.53;;
3343;SDS011;1685;53.104;8.228;2023-04-06T04:38:56;23.30;;;16.00;;
3343;SDS011;1685;53.104;8.228;2023-04-06T04:41:22;20.00;;;12.77;;
3343;SDS011;1685;53.104;8.228;2023-04-06T04:43:49;21.00;;;14.13;;
3343;SDS011;1685;53.104;8.228;2023-04-06T04:46:16;21.70;;;14.60;;
3343;SDS011;1685;53.104;8.228;2023-04-06T04:48:44;20.93;;;14.23;;
3343;SDS011;1685;53.104;8.228;2023-04-06T04:51:11;30.87;;;17.20;;
3343;SDS011;1685;53.104;8.228;2023-04-06T04:53:38;23.90;;;16.00;;
3343;SDS011;1685;53.104;8.228;2023-04-06T04:59:05;21.87;;;13.60;;
3343;SDS011;1685;53.104;8.228;2023-04-06T05:01:31;24.80;;;15.97;;
3343;SDS011;1685;53.104;8.228;2023-04-06T05:04:00;24.67;;;13.67;;
3343;SDS011;1685;53.104;8.228;2023-04-06T05:06:27;23.07;;;14.80;;
3343;SDS011;1685;53.104;8.228;2023-04-06T05:08:53;19.30;;;12.67;;
3343;SDS011;1685;53.104;8.228;2023-04-06T05:11:20;17.17;;;13.43;;
3343;SDS011;1685;53.104;8.228;2023-04-06T05:13:47;20.90;;;13.93;;
3343;SDS011;1685;53.104;8.228;2023-04-06T05:16:14;17.47;;;12.87;;
3343;SDS011;1685;53.104;8.228;2023-04-06T05:18:40;17.77;;;13.73;;
3343;SDS011;1685;53.104;8.228;2023-04-06T05:21:08;20.13;;;13.87;;
3343;SDS011;1685;53.104;8.228;2023-04-06T05:26:24;18.47;;;12.27;;
3343;SDS011;1685;53.104;8.228;2023-04-06T05:28:50;19.40;;;13.27;;
3343;SDS011;1685;53.104;8.228;2023-04-06T05:31:17;18.33;;;13.27;;
3343;SDS011;1685;53.104;8.228;2023-04-06T05:33:44;17.03;;;11.57;;
3343;SDS011;1685;53.104;8.228;2023-04-06T05:36:12;20.23;;;12.93;;
3343;SDS011;1685;53.104;8.228;2023-04-06T05:38:39;20.37;;;13.20;;
3343;SDS011;1685;53.104;8.228;2023-04-06T05:41:06;22.50;;;12.20;;
3343;SDS011;1685;53.104;8.228;2023-04-06T05:43:33;21.43;;;12.83;;
3343;SDS011;1685;53.104;8.228;2023-04-06T05:46:00;17.30;;;13.07;;
3343;SDS011;1685;53.104;8.228;2023-04-06T05:48:26;17.93;;;13.27;;
3343;SDS011;1685;53.104;8.228;2023-04-06T05:50:54;18.93;;;13.37;;
3343;SDS011;1685;53.104;8.228;2023-04-06T05:53:22;19.50;;;13.67;;
3343;SDS011;1685;53.104;8.228;2023-04-06T05:55:51;20.53;;;13.43;;
3343;SDS011;1685;53.104;8.228;2023-04-06T05:58:17;17.77;;;13.47;;
3343;SDS011;1685;53.104;8.228;2023-04-06T06:00:44;20.73;;;13.27;;
3343;SDS011;1685;53.104;8.228;2023-04-06T06:03:12;16.43;;;12.20;;
3343;SDS011;1685;53.104;8.228;2023-04-06T06:05:40;16.37;;;12.50;;
3343;SDS011;1685;53.104;8.228;2023-04-06T06:08:06;15.93;;;12.30;;
3343;SDS011;1685;53.104;8.228;2023-04-06T06:10:35;16.70;;;11.90;;
3343;SDS011;1685;53.104;8.228;2023-04-06T06:13:02;14.40;;;11.87;;
3343;SDS011;1685;53.104;8.228;2023-04-06T06:15:28;14.10;;;11.17;;
3343;SDS011;1685;53.104;8.228;2023-04-06T06:17:55;19.13;;;11.30;;
3343;SDS011;1685;53.104;8.228;2023-04-06T06:20:22;15.63;;;10.93;;
3343;SDS011;1685;53.104;8.228;2023-04-06T06:22:49;15.13;;;10.33;;
3343;SDS011;1685;53.104;8.228;2023-04-06T06:25:15;24.97;;;10.30;;
3343;SDS011;1685;53.104;8.228;2023-04-06T06:27:43;14.30;;;10.67;;
3343;SDS011;1685;53.104;8.228;2023-04-06T06:30:10;12.03;;;10.00;;
3343;SDS011;1685;53.104;8.228;2023-04-06T06:32:38;12.67;;;9.70;;
3343;SDS011;1685;53.104;8.228;2023-04-06T06:35:05;12.13;;;9.43;;
3343;SDS011;1685;53.104;8.228;2023-04-06T06:37:32;12.90;;;10.10;;
3343;SDS011;1685;53.104;8.228;2023-04-06T06:39:59;10.73;;;9.40;;
3343;SDS011;1685;53.104;8.228;2023-04-06T06:42:25;10.47;;;9.17;;
3343;SDS011;1685;53.104;8.228;2023-04-06T06:44:53;10.70;;;8.87;;
3343;SDS011;1685;53.104;8.228;2023-04-06T06:47:20;10.27;;;8.13;;
3343;SDS011;1685;53.104;8.228;2023-04-06T06:49:47;9.73;;;8.43;;
3343;SDS011;1685;53.104;8.228;2023-04-06T06:55:14;12.70;;;9.17;;
3343;SDS011;1685;53.104;8.228;2023-04-06T06:57:41;11.30;;;8.03;;
3343;SDS011;1685;53.104;8.228;2023-04-06T07:00:10;10.03;;;8.93;;
3343;SDS011;1685;53.104;8.228;2023-04-06T07:02:38;8.50;;;7.70;;
3343;SDS011;1685;53.104;8.228;2023-04-06T07:05:05;9.00;;;7.63;;
3343;SDS011;1685;53.104;8.228;2023-04-06T07:07:32;9.43;;;7.23;;
3343;SDS011;1685;53.104;8.228;2023-04-06T07:09:59;16.63;;;8.47;;
3343;SDS011;1685;53.104;8.228;2023-04-06T07:12:26;8.70;;;7.10;;
3343;SDS011;1685;53.104;8.228;2023-04-06T07:14:53;10.73;;;7.60;;
3343;SDS011;1685;53.104;8.228;2023-04-06T07:17:22;9.03;;;7.33;;
3343;SDS011;1685;53.104;8.228;2023-04-06T07:19:49;13.50;;;8.30;;
3343;SDS011;1685;53.104;8.228;2023-04-06T07:22:16;12.53;;;7.80;;
3343;SDS011;1685;53.104;8.228;2023-04-06T07:24:42;8.53;;;7.50;;
3343;SDS011;1685;53.104;8.228;2023-04-06T07:27:09;9.30;;;7.13;;
3343;SDS011;1685;53.104;8.228;2023-04-06T07:29:36;11.07;;;7.47;;
3343;SDS011;1685;53.104;8.228;2023-04-06T07:32:03;8.60;;;7.40;;
3343;SDS011;1685;53.104;8.228;2023-04-06T07:34:32;9.40;;;6.70;;
3343;SDS011;1685;53.104;8.228;2023-04-06T07:36:58;8.37;;;7.57;;
3343;SDS011;1685;53.104;8.228;2023-04-06T07:39:26;9.13;;;7.17;;
3343;SDS011;1685;53.104;8.228;2023-04-06T07:41:52;8.93;;;6.93;;
3343;SDS011;1685;53.104;8.228;2023-04-06T07:44:19;7.70;;;6.90;;
3343;SDS011;1685;53.104;8.228;2023-04-06T07:46:46;10.30;;;7.07;;
3343;SDS011;1685;53.104;8.228;2023-04-06T07:49:13;7.97;;;7.20;;
3343;SDS011;1685;53.104;8.228;2023-04-06T07:51:41;8.03;;;6.93;;
3343;SDS011;1685;53.104;8.228;2023-04-06T07:54:08;9.43;;;6.73;;
3343;SDS011;1685;53.104;8.228;2023-04-06T07:56:35;8.60;;;7.50;;
3343;SDS011;1685;53.104;8.228;2023-04-06T07:59:02;8.83;;;7.27;;
3343;SDS011;1685;53.104;8.228;2023-04-06T08:01:29;7.20;;;6.40;;
3343;SDS011;1685;53.104;8.228;2023-04-06T08:03:55;7.97;;;7.17;;
3343;SDS011;1685;53.104;8.228;2023-04-06T08:06:24;8.93;;;7.90;;
3343;SDS011;1685;53.104;8.228;2023-04-06T08:08:52;12.50;;;7.57;;
3343;SDS011;1685;53.104;8.228;2023-04-06T08:11:19;9.03;;;8.00;;
3343;SDS011;1685;53.104;8.228;2023-04-06T08:16:46;8.70;;;6.80;;
3343;SDS011;1685;53.104;8.228;2023-04-06T08:19:13;10.97;;;7.50;;
3343;SDS011;1685;53.104;8.228;2023-04-06T08:21:42;12.30;;;7.60;;
3343;SDS011;1685;53.104;8.228;2023-04-06T08:24:10;8.40;;;7.50;;
3343;SDS011;1685;53.104;8.228;2023-04-06T08:26:37;12.07;;;7.40;;
3343;SDS011;1685;53.104;8.228;2023-04-06T08:29:04;26.47;;;8.50;;
3343;SDS011;1685;53.104;8.228;2023-04-06T08:34:22;11.30;;;7.90;;
3343;SDS011;1685;53.104;8.228;2023-04-06T08:36:49;9.53;;;7.80;;
3343;SDS011;1685;53.104;8.228;2023-04-06T08:42:20;8.43;;;7.30;;
3343;SDS011;1685;53.104;8.228;2023-04-06T08:44:49;10.13;;;7.63;;
3343;SDS011;1685;53.104;8.228;2023-04-06T08:50:17;7.67;;;6.87;;
3343;SDS011;1685;53.104;8.228;2023-04-06T08:52:45;11.03;;;6.40;;
3343;SDS011;1685;53.104;8.228;2023-04-06T08:55:14;9.70;;;7.10;;
3343;SDS011;1685;53.104;8.228;2023-04-06T08:57:43;11.00;;;7.47;;
3343;SDS011;1685;53.104;8.228;2023-04-06T09:03:12;8.70;;;6.60;;
3343;SDS011;1685;53.104;8.228;2023-04-06T09:05:40;12.67;;;7.60;;
3343;SDS011;1685;53.104;8.228;2023-04-06T09:08:07;8.43;;;7.17;;
3343;SDS011;1685;53.104;8.228;2023-04-06T09:10:35;10.80;;;7.60;;
3343;SDS011;1685;53.104;8.228;2023-04-06T09:13:04;10.83;;;7.27;;
3343;SDS011;1685;53.104;8.228;2023-04-06T09:24:39;7.27;;;6.57;;
3343;SDS011;1685;53.104;8.228;2023-04-06T09:27:09;12.00;;;6.93;;
3343;SDS011;1685;53.104;8.228;2023-04-06T09:29:44;10.13;;;8.30;;
3343;SDS011;1685;53.104;8.228;2023-04-06T09:32:11;9.00;;;7.90;;
3343;SDS011;1685;53.104;8.228;2023-04-06T09:34:41;9.07;;;7.70;;
3343;SDS011;1685;53.104;8.228;2023-04-06T09:37:13;11.00;;;8.07;;
3343;SDS011;1685;53.104;8.228;2023-04-06T09:39:47;8.77;;;7.97;;
3343;SDS011;1685;53.104;8.228;2023-04-06T09:42:23;11.67;;;8.57;;
3343;SDS011;1685;53.104;8.228;2023-04-06T09:44:52;9.20;;;7.63;;
3343;SDS011;1685;53.104;8.228;2023-04-06T09:47:19;13.97;;;8.43;;
3343;SDS011;1685;53.104;8.228;2023-04-06T09:49:58;14.60;;;9.10;;
3343;SDS011;1685;53.104;8.228;2023-04-06T09:52:26;11.90;;;7.40;;
3343;SDS011;1685;53.104;8.228;2023-04-06T09:54:58;21.53;;;9.00;;
3343;SDS011;1685;53.104;8.228;2023-04-06T09:57:28;12.33;;;8.30;;
3343;SDS011;1685;53.104;8.228;2023-04-06T10:00:02;11.23;;;8.83;;
3343;SDS011;1685;53.104;8.228;2023-04-06T10:05:35;13.30;;;9.93;;
3343;SDS011;1685;53.104;8.228;2023-04-06T10:08:08;17.57;;;10.43;;
3343;SDS011;1685;53.104;8.228;2023-04-06T10:10:36;12.83;;;10.33;;
3343;SDS011;1685;53.104;8.228;2023-04-06T10:13:03;12.43;;;11.07;;
3343;SDS011;1685;53.104;8.228;2023-04-06T10:15:33;14.30;;;11.20;;
3343;SDS011;1685;53.104;8.228;2023-04-06T10:18:00;12.60;;;10.80;;
3343;SDS011;1685;53.104;8.228;2023-04-06T10:20:29;13.93;;;11.00;;
3343;SDS011;1685;53.104;8.228;2023-04-06T10:23:01;16.70;;;11.70;;
3343;SDS011;1685;53.104;8.228;2023-04-06T10:25:34;17.50;;;10.43;;
3343;SDS011;1685;53.104;8.228;2023-04-06T10:28:04;14.60;;;11.10;;
3343;SDS011;1685;53.104;8.228;2023-04-06T10:30:33;15.07;;;11.03;;
3343;SDS011;1685;53.104;8.228;2023-04-06T10:33:01;13.23;;;10.90;;
3343;SDS011;1685;53.104;8.228;2023-04-06T10:35:39;18.60;;;11.27;;
3343;SDS011;1685;53.104;8.228;2023-04-06T10:38:06;16.47;;;10.60;;
3343;SDS011;1685;53.104;8.228;2023-04-06T10:40:35;17.50;;;11.83;;
3343;SDS011;1685;53.104;8.228;2023-04-06T10:43:09;12.60;;;10.33;;
3343;SDS011;1685;53.104;8.228;2023-04-06T10:45:39;22.07;;;12.33;;
3343;SDS011;1685;53.104;8.228;2023-04-06T10:48:14;15.77;;;11.50;;
3343;SDS011;1685;53.104;8.228;2023-04-06T10:50:41;17.30;;;10.40;;
3343;SDS011;1685;53.104;8.228;2023-04-06T10:53:09;15.90;;;10.67;;
3343;SDS011;1685;53.104;8.228;2023-04-06T10:55:38;15.63;;;11.97;;
3343;SDS011;1685;53.104;8.228;2023-04-06T10:58:06;16.03;;;12.30;;
3343;SDS011;1685;53.104;8.228;2023-04-06T11:00:33;20.60;;;11.83;;
3343;SDS011;1685;53.104;8.228;2023-04-06T11:03:01;14.60;;;11.90;;
3343;SDS011;1685;53.104;8.228;2023-04-06T11:05:28;15.83;;;11.20;;
3343;SDS011;1685;53.104;8.228;2023-04-06T11:07:56;14.17;;;10.23;;
3343;SDS011;1685;53.104;8.228;2023-04-06T11:10:23;14.53;;;9.93;;
3343;SDS011;1685;53.104;8.228;2023-04-06T11:12:53;16.07;;;10.80;;
3343;SDS011;1685;53.104;8.228;2023-04-06T11:15:21;13.40;;;10.07;;
3343;SDS011;1685;53.104;8.228;2023-04-06T11:17:48;13.90;;;10.03;;
3343;SDS011;1685;53.104;8.228;2023-04-06T11:20:17;11.30;;;9.13;;
3343;SDS011;1685;53.104;8.228;2023-04-06T11:22:47;14.07;;;10.33;;
3343;SDS011;1685;53.104;8.228;2023-04-06T11:25:15;12.13;;;9.97;;
3343;SDS011;1685;53.104;8.228;2023-04-06T11:27:43;18.90;;;10.27;;
3343;SDS011;1685;53.104;8.228;2023-04-06T11:30:10;17.13;;;11.00;;
3343;SDS011;1685;53.104;8.228;2023-04-06T11:32:39;15.30;;;11.17;;
3343;SDS011;1685;53.104;8.228;2023-04-06T11:35:07;14.87;;;12.27;;
3343;SDS011;1685;53.104;8.228;2023-04-06T11:37:39;16.00;;;12.30;;
3343;SDS011;1685;53.104;8.228;2023-04-06T11:43:06;16.63;;;13.40;;
3343;SDS011;1685;53.104;8.228;2023-04-06T11:45:39;21.00;;;15.03;;
3343;SDS011;1685;53.104;8.228;2023-04-06T11:48:17;19.80;;;15.70;;
3343;SDS011;1685;53.104;8.228;2023-04-06T11:50:45;18.87;;;15.83;;
3343;SDS011;1685;53.104;8.228;2023-04-06T11:53:14;26.43;;;17.00;;
3343;SDS011;1685;53.104;8.228;2023-04-06T11:55:40;27.87;;;15.50;;
3343;SDS011;1685;53.104;8.228;2023-04-06T11:58:10;25.23;;;16.33;;
3343;SDS011;1685;53.104;8.228;2023-04-06T12:06:23;25.03;;;15.13;;
3343;SDS011;1685;53.104;8.228;2023-04-06T12:08:52;22.27;;;14.60;;
3343;SDS011;1685;53.104;8.228;2023-04-06T12:14:19;19.97;;;13.57;;
3343;SDS011;1685;53.104;8.228;2023-04-06T12:16:46;19.83;;;13.53;;
3343;SDS011;1685;53.104;8.228;2023-04-06T12:19:13;20.83;;;14.80;;
3343;SDS011;1685;53.104;8.228;2023-04-06T12:21:40;19.60;;;14.50;;
3343;SDS011;1685;53.104;8.228;2023-04-06T12:24:08;17.67;;;13.30;;
3343;SDS011;1685;53.104;8.228;2023-04-06T12:29:36;20.63;;;14.07;;
3343;SDS011;1685;53.104;8.228;2023-04-06T12:32:03;17.40;;;12.60;;
3343;SDS011;1685;53.104;8.228;2023-04-06T12:34:31;20.67;;;13.77;;
3343;SDS011;1685;53.104;8.228;2023-04-06T12:36:58;18.23;;;13.50;;
3343;SDS011;1685;53.104;8.228;2023-04-06T12:39:28;23.00;;;12.87;;
3343;SDS011;1685;53.104;8.228;2023-04-06T12:41:55;31.33;;;13.00;;
3343;SDS011;1685;53.104;8.228;2023-04-06T12:44:22;15.97;;;11.97;;
3343;SDS011;1685;53.104;8.228;2023-04-06T12:46:49;20.77;;;13.87;;
3343;SDS011;1685;53.104;8.228;2023-04-06T12:49:17;22.10;;;12.30;;
3343;SDS011;1685;53.104;8.228;2023-04-06T12:51:44;16.57;;;11.90;;
3343;SDS011;1685;53.104;8.228;2023-04-06T12:54:11;17.73;;;11.60;;
3343;SDS011;1685;53.104;8.228;2023-04-06T12:59:41;17.00;;;12.20;;
3343;SDS011;1685;53.104;8.228;2023-04-06T13:02:09;14.23;;;11.67;;
3343;SDS011;1685;53.104;8.228;2023-04-06T13:04:36;18.47;;;12.67;;
3343;SDS011;1685;53.104;8.228;2023-04-06T13:07:03;15.63;;;11.77;;
3343;SDS011;1685;53.104;8.228;2023-04-06T13:09:30;14.40;;;10.80;;
3343;SDS011;1685;53.104;8.228;2023-04-06T13:11:57;16.53;;;11.90;;
3343;SDS011;1685;53.104;8.228;2023-04-06T13:17:28;16.10;;;12.63;;
3343;SDS011;1685;53.104;8.228;2023-04-06T13:19:55;15.13;;;10.80;;
3343;SDS011;1685;53.104;8.228;2023-04-06T13:22:22;13.13;;;11.07;;
3343;SDS011;1685;53.104;8.228;2023-04-06T13:27:49;13.73;;;9.97;;
3343;SDS011;1685;53.104;8.228;2023-04-06T13:30:16;14.93;;;10.67;;
3343;SDS011;1685;53.104;8.228;2023-04-06T13:32:45;15.03;;;11.00;;
3343;SDS011;1685;53.104;8.228;2023-04-06T13:41:19;14.27;;;10.83;;
3343;SDS011;1685;53.104;8.228;2023-04-06T13:43:46;16.33;;;11.90;;
3343;SDS011;1685;53.104;8.228;2023-04-06T13:46:14;18.20;;;10.87;;
3343;SDS011;1685;53.104;8.228;2023-04-06T13:48:42;14.07;;;11.00;;
3343;SDS011;1685;53.104;8.228;2023-04-06T13:51:10;14.63;;;11.10;;
3343;SDS011;1685;53.104;8.228;2023-04-06T13:53:37;16.20;;;10.57;;
3343;SDS011;1685;53.104;8.228;2023-04-06T13:56:04;15.70;;;10.83;;
3343;SDS011;1685;53.104;8.228;2023-04-06T13:58:32;16.40;;;10.90;;
3343;SDS011;1685;53.104;8.228;2023-04-06T14:07:04;16.53;;;11.97;;
3343;SDS011;1685;53.104;8.228;2023-04-06T14:09:32;16.77;;;11.70;;
3343;SDS011;1685;53.104;8.228;2023-04-06T14:11:59;16.70;;;12.00;;
3343;SDS011;1685;53.104;8.228;2023-04-06T14:14:26;17.60;;;12.23;;
3343;SDS011;1685;53.104;8.228;2023-04-06T14:16:53;16.20;;;13.37;;
3343;SDS011;1685;53.104;8.228;2023-04-06T14:19:21;15.63;;;11.57;;
3343;SDS011;1685;53.104;8.228;2023-04-06T14:21:48;15.27;;;12.00;;
3343;SDS011;1685;53.104;8.228;2023-04-06T14:24:17;21.10;;;12.90;;
3343;SDS011;1685;53.104;8.228;2023-04-06T14:26:44;17.90;;;11.57;;
3343;SDS011;1685;53.104;8.228;2023-04-06T14:29:11;15.47;;;11.33;;
3343;SDS011;1685;53.104;8.228;2023-04-06T14:31:38;19.80;;;11.83;;
3343;SDS011;1685;53.104;8.228;2023-04-06T14:34:05;15.20;;;11.03;;
3343;SDS011;1685;53.104;8.228;2023-04-06T14:36:32;17.80;;;11.93;;
3343;SDS011;1685;53.104;8.228;2023-04-06T14:39:01;15.63;;;10.93;;
3343;SDS011;1685;53.104;8.228;2023-04-06T14:41:31;19.00;;;11.17;;
3343;SDS011;1685;53.104;8.228;2023-04-06T14:50:03;13.90;;;10.77;;
3343;SDS011;1685;53.104;8.228;2023-04-06T14:52:30;13.43;;;10.10;;
3343;SDS011;1685;53.104;8.228;2023-04-06T14:54:57;15.63;;;11.93;;
3343;SDS011;1685;53.104;8.228;2023-04-06T14:57:26;17.27;;;11.27;;
3343;SDS011;1685;53.104;8.228;2023-04-06T14:59:53;16.13;;;10.30;;
3343;SDS011;1685;53.104;8.228;2023-04-06T15:02:20;17.00;;;11.83;;
3343;SDS011;1685;53.104;8.228;2023-04-06T15:04:47;13.60;;;9.60;;
3343;SDS011;1685;53.104;8.228;2023-04-06T15:07:14;18.53;;;10.80;;
3343;SDS011;1685;53.104;8.228;2023-04-06T15:09:41;14.37;;;10.00;;
3343;SDS011;1685;53.104;8.228;2023-04-06T15:12:08;14.07;;;10.20;;
3343;SDS011;1685;53.104;8.228;2023-04-06T15:17:42;14.00;;;10.20;;
3343;SDS011;1685;53.104;8.228;2023-04-06T15:20:09;15.97;;;9.83;;
3343;SDS011;1685;53.104;8.228;2023-04-06T15:22:36;14.77;;;10.27;;
3343;SDS011;1685;53.104;8.228;2023-04-06T15:25:04;15.97;;;10.93;;
3343;SDS011;1685;53.104;8.228;2023-04-06T15:27:31;13.80;;;10.40;;
3343;SDS011;1685;53.104;8.228;2023-04-06T15:29:58;14.73;;;11.00;;
3343;SDS011;1685;53.104;8.228;2023-04-06T15:32:25;14.00;;;11.27;;
3343;SDS011;1685;53.104;8.228;2023-04-06T15:34:54;16.23;;;10.73;;
3343;SDS011;1685;53.104;8.228;2023-04-06T15:37:22;15.77;;;11.07;;
3343;SDS011;1685;53.104;8.228;2023-04-06T15:39:49;16.43;;;11.87;;
3343;SDS011;1685;53.104;8.228;2023-04-06T15:42:16;14.50;;;10.63;;
3343;SDS011;1685;53.104;8.228;2023-04-06T15:44:43;17.57;;;10.97;;
3343;SDS011;1685;53.104;8.228;2023-04-06T15:47:10;14.17;;;10.00;;
3343;SDS011;1685;53.104;8.228;2023-04-06T15:49:37;17.83;;;10.10;;
3343;SDS011;1685;53.104;8.228;2023-04-06T15:52:05;15.07;;;10.20;;
3343;SDS011;1685;53.104;8.228;2023-04-06T15:54:32;13.90;;;10.00;;
3343;SDS011;1685;53.104;8.228;2023-04-06T15:57:00;18.93;;;9.90;;
3343;SDS011;1685;53.104;8.228;2023-04-06T15:59:27;13.63;;;9.03;;
3343;SDS011;1685;53.104;8.228;2023-04-06T16:01:54;17.50;;;10.20;;
3343;SDS011;1685;53.104;8.228;2023-04-06T16:04:23;17.47;;;10.40;;
3343;SDS011;1685;53.104;8.228;2023-04-06T16:06:50;13.63;;;9.97;;
3343;SDS011;1685;53.104;8.228;2023-04-06T16:09:18;18.90;;;10.93;;
3343;SDS011;1685;53.104;8.228;2023-04-06T16:11:45;13.87;;;9.77;;
3343;SDS011;1685;53.104;8.228;2023-04-06T16:14:12;14.37;;;10.20;;
3343;SDS011;1685;53.104;8.228;2023-04-06T16:22:44;14.50;;;9.40;;